sensor_id;sensor_type;location;lat;lon;timestamp;P1;durP1;ratioP1;P2;durP2;ratioP2
24619;SDS011;12763;55.802;37.404;2023-02-03T00:01:32;47.75;;;16.38;;
24619;SDS011;12763;55.802;37.404;2023-02-03T00:03:58;42.50;;;17.33;;
24619;SDS011;12763;55.802;37.404;2023-02-03T00:06:23;54.72;;;18.35;;
24619;SDS011;12763;55.802;37.404;2023-02-03T00:08:51;43.72;;;16.13;;
24619;SDS011;12763;55.802;37.404;2023-02-03T00:11:20;47.58;;;18.10;;
24619;SDS011;12763;55.802;37.404;2023-02-03T00:13:46;48.92;;;17.35;;
24619;SDS011;12763;55.802;37.404;2023-02-03T00:16:12;47.85;;;17.25;;
24619;SDS011;12763;55.802;37.404;2023-02-03T00:18:37;44.55;;;17.65;;
24619;SDS011;12763;55.802;37.404;2023-02-03T00:21:03;48.60;;;17.15;;
24619;SDS011;12763;55.802;37.404;2023-02-03T00:23:30;54.88;;;18.23;;
24619;SDS011;12763;55.802;37.404;2023-02-03T00:25:57;44.03;;;17.00;;
24619;SDS011;12763;55.802;37.404;2023-02-03T00:28:30;44.53;;;17.80;;
24619;SDS011;12763;55.802;37.404;2023-02-03T00:30:56;52.55;;;19.85;;
24619;SDS011;12763;55.802;37.404;2023-02-03T00:33:22;53.70;;;17.50;;
24619;SDS011;12763;55.802;37.404;2023-02-03T00:35:48;52.42;;;17.65;;
24619;SDS011;12763;55.802;37.404;2023-02-03T00:38:14;48.35;;;17.27;;
24619;SDS011;12763;55.802;37.404;2023-02-03T00:40:40;45.40;;;17.23;;
24619;SDS011;12763;55.802;37.404;2023-02-03T00:43:06;43.35;;;17.10;;
24619;SDS011;12763;55.802;37.404;2023-02-03T00:45:32;47.22;;;17.27;;
24619;SDS011;12763;55.802;37.404;2023-02-03T00:47:57;50.17;;;17.85;;
24619;SDS011;12763;55.802;37.404;2023-02-03T00:50:23;44.10;;;16.83;;
24619;SDS011;12763;55.802;37.404;2023-02-03T00:52:49;46.95;;;17.23;;
24619;SDS011;12763;55.802;37.404;2023-02-03T00:55:14;49.05;;;19.90;;
24619;SDS011;12763;55.802;37.404;2023-02-03T00:57:40;47.08;;;16.98;;
24619;SDS011;12763;55.802;37.404;2023-02-03T01:00:06;42.38;;;16.75;;
24619;SDS011;12763;55.802;37.404;2023-02-03T01:02:34;52.25;;;16.65;;
24619;SDS011;12763;55.802;37.404;2023-02-03T01:05:00;46.28;;;17.42;;
24619;SDS011;12763;55.802;37.404;2023-02-03T01:07:25;49.70;;;17.17;;
24619;SDS011;12763;55.802;37.404;2023-02-03T01:09:51;44.33;;;17.55;;
24619;SDS011;12763;55.802;37.404;2023-02-03T01:12:17;48.35;;;17.58;;
24619;SDS011;12763;55.802;37.404;2023-02-03T01:14:42;50.13;;;17.38;;
24619;SDS011;12763;55.802;37.404;2023-02-03T01:17:08;43.83;;;17.48;;
24619;SDS011;12763;55.802;37.404;2023-02-03T01:19:34;47.42;;;18.42;;
24619;SDS011;12763;55.802;37.404;2023-02-03T01:21:59;41.42;;;15.75;;
24619;SDS011;12763;55.802;37.404;2023-02-03T01:24:25;42.30;;;15.75;;
24619;SDS011;12763;55.802;37.404;2023-02-03T01:26:51;51.72;;;19.88;;
24619;SDS011;12763;55.802;37.404;2023-02-03T01:29:16;44.13;;;17.08;;
24619;SDS011;12763;55.802;37.404;2023-02-03T01:31:42;48.38;;;17.25;;
24619;SDS011;12763;55.802;37.404;2023-02-03T01:34:11;59.05;;;19.17;;
24619;SDS011;12763;55.802;37.404;2023-02-03T01:36:38;48.83;;;17.35;;
24619;SDS011;12763;55.802;37.404;2023-02-03T01:39:04;49.17;;;17.58;;
24619;SDS011;12763;55.802;37.404;2023-02-03T01:41:31;47.30;;;16.80;;
24619;SDS011;12763;55.802;37.404;2023-02-03T01:43:59;44.28;;;17.52;;
24619;SDS011;12763;55.802;37.404;2023-02-03T01:46:34;49.80;;;17.00;;
24619;SDS011;12763;55.802;37.404;2023-02-03T01:51:32;48.90;;;18.90;;
24619;SDS011;12763;55.802;37.404;2023-02-03T01:53:59;46.67;;;18.50;;
24619;SDS011;12763;55.802;37.404;2023-02-03T01:56:27;50.97;;;18.40;;
24619;SDS011;12763;55.802;37.404;2023-02-03T01:58:57;51.00;;;19.67;;
24619;SDS011;12763;55.802;37.404;2023-02-03T02:01:24;54.33;;;19.13;;
24619;SDS011;12763;55.802;37.404;2023-02-03T02:03:51;48.85;;;18.45;;
24619;SDS011;12763;55.802;37.404;2023-02-03T02:06:20;55.30;;;18.30;;
24619;SDS011;12763;55.802;37.404;2023-02-03T02:08:46;53.33;;;18.83;;
24619;SDS011;12763;55.802;37.404;2023-02-03T02:11:16;46.70;;;18.30;;
24619;SDS011;12763;55.802;37.404;2023-02-03T02:13:45;49.08;;;18.98;;
24619;SDS011;12763;55.802;37.404;2023-02-03T02:45:24;54.60;;;18.67;;
24619;SDS011;12763;55.802;37.404;2023-02-03T02:47:57;62.30;;;20.38;;
24619;SDS011;12763;55.802;37.404;2023-02-03T02:50:29;59.20;;;19.73;;
24619;SDS011;12763;55.802;37.404;2023-02-03T02:53:01;64.22;;;19.17;;
24619;SDS011;12763;55.802;37.404;2023-02-03T02:55:30;56.67;;;19.67;;
24619;SDS011;12763;55.802;37.404;2023-02-03T02:58:02;58.58;;;19.63;;
24619;SDS011;12763;55.802;37.404;2023-02-03T03:00:33;56.95;;;17.88;;
24619;SDS011;12763;55.802;37.404;2023-02-03T03:03:17;64.45;;;19.02;;
24619;SDS011;12763;55.802;37.404;2023-02-03T03:05:49;58.00;;;19.58;;
24619;SDS011;12763;55.802;37.404;2023-02-03T03:13:47;53.17;;;17.45;;
24619;SDS011;12763;55.802;37.404;2023-02-03T03:16:18;49.33;;;16.45;;
24619;SDS011;12763;55.802;37.404;2023-02-03T03:18:50;56.03;;;18.70;;
24619;SDS011;12763;55.802;37.404;2023-02-03T03:21:31;49.25;;;18.20;;
24619;SDS011;12763;55.802;37.404;2023-02-03T03:24:02;55.33;;;17.92;;
24619;SDS011;12763;55.802;37.404;2023-02-03T03:29:21;47.28;;;17.48;;
24619;SDS011;12763;55.802;37.404;2023-02-03T03:31:54;40.03;;;14.63;;
24619;SDS011;12763;55.802;37.404;2023-02-03T03:34:20;45.05;;;15.25;;
24619;SDS011;12763;55.802;37.404;2023-02-03T03:36:47;47.38;;;16.88;;
24619;SDS011;12763;55.802;37.404;2023-02-03T03:42:17;50.40;;;17.45;;
24619;SDS011;12763;55.802;37.404;2023-02-03T03:45:01;49.25;;;17.58;;
24619;SDS011;12763;55.802;37.404;2023-02-03T03:50:29;48.78;;;16.60;;
24619;SDS011;12763;55.802;37.404;2023-02-03T03:53:03;46.42;;;17.02;;
24619;SDS011;12763;55.802;37.404;2023-02-03T03:55:32;60.97;;;18.77;;
24619;SDS011;12763;55.802;37.404;2023-02-03T03:58:04;46.47;;;17.13;;
24619;SDS011;12763;55.802;37.404;2023-02-03T04:00:37;53.33;;;17.38;;
24619;SDS011;12763;55.802;37.404;2023-02-03T04:03:19;40.58;;;15.07;;
24619;SDS011;12763;55.802;37.404;2023-02-03T04:05:48;55.72;;;17.23;;
24619;SDS011;12763;55.802;37.404;2023-02-03T04:08:14;49.30;;;16.98;;
24619;SDS011;12763;55.802;37.404;2023-02-03T04:10:41;46.08;;;17.20;;
24619;SDS011;12763;55.802;37.404;2023-02-03T04:13:08;48.63;;;19.30;;
24619;SDS011;12763;55.802;37.404;2023-02-03T04:15:35;44.78;;;18.02;;
24619;SDS011;12763;55.802;37.404;2023-02-03T04:18:01;49.28;;;16.15;;
24619;SDS011;12763;55.802;37.404;2023-02-03T04:20:28;59.35;;;18.42;;
24619;SDS011;12763;55.802;37.404;2023-02-03T04:22:55;38.85;;;14.18;;
24619;SDS011;12763;55.802;37.404;2023-02-03T04:25:21;47.67;;;16.75;;
24619;SDS011;12763;55.802;37.404;2023-02-03T04:27:46;48.33;;;18.00;;
24619;SDS011;12763;55.802;37.404;2023-02-03T04:30:12;48.67;;;16.92;;
24619;SDS011;12763;55.802;37.404;2023-02-03T04:32:38;43.20;;;15.77;;
24619;SDS011;12763;55.802;37.404;2023-02-03T04:35:05;50.45;;;18.08;;
24619;SDS011;12763;55.802;37.404;2023-02-03T04:37:31;43.20;;;16.30;;
24619;SDS011;12763;55.802;37.404;2023-02-03T04:39:57;39.53;;;14.70;;
24619;SDS011;12763;55.802;37.404;2023-02-03T04:42:23;40.53;;;15.45;;
24619;SDS011;12763;55.802;37.404;2023-02-03T04:44:49;49.90;;;17.15;;
24619;SDS011;12763;55.802;37.404;2023-02-03T04:47:16;52.22;;;18.13;;
24619;SDS011;12763;55.802;37.404;2023-02-03T04:49:43;51.67;;;16.50;;
24619;SDS011;12763;55.802;37.404;2023-02-03T04:52:09;44.80;;;15.85;;
24619;SDS011;12763;55.802;37.404;2023-02-03T04:54:35;48.10;;;15.27;;
24619;SDS011;12763;55.802;37.404;2023-02-03T04:57:01;41.00;;;15.93;;
24619;SDS011;12763;55.802;37.404;2023-02-03T04:59:27;47.78;;;17.40;;
24619;SDS011;12763;55.802;37.404;2023-02-03T05:01:53;47.17;;;16.75;;
24619;SDS011;12763;55.802;37.404;2023-02-03T05:04:19;51.17;;;16.33;;
24619;SDS011;12763;55.802;37.404;2023-02-03T05:06:45;46.08;;;16.23;;
24619;SDS011;12763;55.802;37.404;2023-02-03T05:09:10;50.65;;;16.30;;
24619;SDS011;12763;55.802;37.404;2023-02-03T05:11:36;46.13;;;15.25;;
24619;SDS011;12763;55.802;37.404;2023-02-03T05:14:02;48.92;;;16.60;;
24619;SDS011;12763;55.802;37.404;2023-02-03T05:16:28;39.47;;;15.68;;
24619;SDS011;12763;55.802;37.404;2023-02-03T05:18:54;42.45;;;17.13;;
24619;SDS011;12763;55.802;37.404;2023-02-03T05:21:20;39.50;;;15.50;;
24619;SDS011;12763;55.802;37.404;2023-02-03T05:23:46;42.03;;;14.93;;
24619;SDS011;12763;55.802;37.404;2023-02-03T05:26:11;45.13;;;17.15;;
24619;SDS011;12763;55.802;37.404;2023-02-03T05:28:37;54.50;;;16.88;;
24619;SDS011;12763;55.802;37.404;2023-02-03T05:31:03;39.40;;;16.48;;
24619;SDS011;12763;55.802;37.404;2023-02-03T05:33:29;45.13;;;15.93;;
24619;SDS011;12763;55.802;37.404;2023-02-03T05:35:55;41.58;;;15.02;;
24619;SDS011;12763;55.802;37.404;2023-02-03T05:38:21;37.83;;;14.88;;
24619;SDS011;12763;55.802;37.404;2023-02-03T05:40:47;37.22;;;14.07;;
24619;SDS011;12763;55.802;37.404;2023-02-03T05:45:58;36.45;;;13.50;;
24619;SDS011;12763;55.802;37.404;2023-02-03T05:48:25;38.00;;;13.85;;
24619;SDS011;12763;55.802;37.404;2023-02-03T05:50:51;44.05;;;14.88;;
24619;SDS011;12763;55.802;37.404;2023-02-03T05:53:17;40.85;;;14.02;;
24619;SDS011;12763;55.802;37.404;2023-02-03T05:55:43;36.92;;;15.30;;
24619;SDS011;12763;55.802;37.404;2023-02-03T05:58:08;36.90;;;14.45;;
24619;SDS011;12763;55.802;37.404;2023-02-03T06:00:34;43.20;;;15.43;;
24619;SDS011;12763;55.802;37.404;2023-02-03T06:03:00;34.65;;;12.95;;
24619;SDS011;12763;55.802;37.404;2023-02-03T06:05:28;33.28;;;13.55;;
24619;SDS011;12763;55.802;37.404;2023-02-03T06:07:55;37.30;;;13.02;;
24619;SDS011;12763;55.802;37.404;2023-02-03T06:10:21;35.63;;;12.32;;
24619;SDS011;12763;55.802;37.404;2023-02-03T06:12:47;46.80;;;13.80;;
24619;SDS011;12763;55.802;37.404;2023-02-03T06:15:14;35.47;;;14.35;;
24619;SDS011;12763;55.802;37.404;2023-02-03T06:17:42;36.67;;;13.85;;
24619;SDS011;12763;55.802;37.404;2023-02-03T06:20:10;33.63;;;13.60;;
24619;SDS011;12763;55.802;37.404;2023-02-03T06:22:37;36.42;;;13.07;;
24619;SDS011;12763;55.802;37.404;2023-02-03T06:25:03;39.33;;;13.93;;
24619;SDS011;12763;55.802;37.404;2023-02-03T06:27:29;35.30;;;12.63;;
24619;SDS011;12763;55.802;37.404;2023-02-03T06:29:55;39.33;;;14.93;;
24619;SDS011;12763;55.802;37.404;2023-02-03T06:32:21;31.00;;;12.43;;
24619;SDS011;12763;55.802;37.404;2023-02-03T06:34:46;40.63;;;13.85;;
24619;SDS011;12763;55.802;37.404;2023-02-03T06:37:12;33.00;;;12.88;;
24619;SDS011;12763;55.802;37.404;2023-02-03T06:39:38;35.10;;;13.00;;
24619;SDS011;12763;55.802;37.404;2023-02-03T06:42:04;34.42;;;12.25;;
24619;SDS011;12763;55.802;37.404;2023-02-03T06:44:29;36.67;;;13.00;;
24619;SDS011;12763;55.802;37.404;2023-02-03T06:46:55;38.17;;;13.93;;
24619;SDS011;12763;55.802;37.404;2023-02-03T06:49:23;37.67;;;13.20;;
24619;SDS011;12763;55.802;37.404;2023-02-03T06:51:49;37.65;;;14.18;;
24619;SDS011;12763;55.802;37.404;2023-02-03T06:54:17;42.13;;;14.43;;
24619;SDS011;12763;55.802;37.404;2023-02-03T06:56:42;41.55;;;14.48;;
24619;SDS011;12763;55.802;37.404;2023-02-03T06:59:08;46.13;;;14.88;;
24619;SDS011;12763;55.802;37.404;2023-02-03T07:01:35;42.75;;;15.05;;
24619;SDS011;12763;55.802;37.404;2023-02-03T07:04:01;43.53;;;14.82;;
24619;SDS011;12763;55.802;37.404;2023-02-03T07:06:28;42.85;;;13.95;;
24619;SDS011;12763;55.802;37.404;2023-02-03T07:08:57;42.80;;;17.08;;
24619;SDS011;12763;55.802;37.404;2023-02-03T07:11:23;44.25;;;14.30;;
24619;SDS011;12763;55.802;37.404;2023-02-03T07:13:50;47.40;;;16.20;;
24619;SDS011;12763;55.802;37.404;2023-02-03T07:16:16;47.03;;;16.15;;
24619;SDS011;12763;55.802;37.404;2023-02-03T07:18:42;41.03;;;14.80;;
24619;SDS011;12763;55.802;37.404;2023-02-03T07:21:08;39.22;;;15.68;;
24619;SDS011;12763;55.802;37.404;2023-02-03T07:23:34;39.25;;;14.88;;
24619;SDS011;12763;55.802;37.404;2023-02-03T07:26:02;36.13;;;13.57;;
24619;SDS011;12763;55.802;37.404;2023-02-03T07:28:33;41.80;;;14.35;;
24619;SDS011;12763;55.802;37.404;2023-02-03T07:30:59;33.05;;;12.85;;
24619;SDS011;12763;55.802;37.404;2023-02-03T07:33:26;34.95;;;12.10;;
24619;SDS011;12763;55.802;37.404;2023-02-03T07:35:53;36.05;;;13.27;;
24619;SDS011;12763;55.802;37.404;2023-02-03T07:38:19;40.08;;;14.45;;
24619;SDS011;12763;55.802;37.404;2023-02-03T07:40:46;37.33;;;13.63;;
24619;SDS011;12763;55.802;37.404;2023-02-03T07:43:12;37.90;;;13.70;;
24619;SDS011;12763;55.802;37.404;2023-02-03T07:45:39;36.53;;;13.80;;
24619;SDS011;12763;55.802;37.404;2023-02-03T07:48:06;32.00;;;10.75;;
24619;SDS011;12763;55.802;37.404;2023-02-03T07:50:32;31.02;;;12.38;;
24619;SDS011;12763;55.802;37.404;2023-02-03T07:52:59;36.47;;;12.65;;
24619;SDS011;12763;55.802;37.404;2023-02-03T07:55:26;34.58;;;11.95;;
24619;SDS011;12763;55.802;37.404;2023-02-03T07:57:53;36.75;;;11.75;;
24619;SDS011;12763;55.802;37.404;2023-02-03T08:00:24;30.20;;;11.30;;
24619;SDS011;12763;55.802;37.404;2023-02-03T08:02:51;31.40;;;10.60;;
24619;SDS011;12763;55.802;37.404;2023-02-03T08:05:20;28.20;;;11.38;;
24619;SDS011;12763;55.802;37.404;2023-02-03T08:07:46;31.48;;;12.30;;
24619;SDS011;12763;55.802;37.404;2023-02-03T08:10:13;27.88;;;12.27;;
24619;SDS011;12763;55.802;37.404;2023-02-03T08:12:40;35.05;;;12.32;;
24619;SDS011;12763;55.802;37.404;2023-02-03T08:15:10;31.08;;;12.15;;
24619;SDS011;12763;55.802;37.404;2023-02-03T08:17:36;32.67;;;12.05;;
24619;SDS011;12763;55.802;37.404;2023-02-03T08:20:04;27.45;;;11.80;;
24619;SDS011;12763;55.802;37.404;2023-02-03T08:22:31;30.52;;;11.80;;
24619;SDS011;12763;55.802;37.404;2023-02-03T08:24:58;26.33;;;10.18;;
24619;SDS011;12763;55.802;37.404;2023-02-03T08:27:24;31.08;;;12.25;;
24619;SDS011;12763;55.802;37.404;2023-02-03T08:29:50;27.30;;;11.20;;
24619;SDS011;12763;55.802;37.404;2023-02-03T08:32:20;35.38;;;13.27;;
24619;SDS011;12763;55.802;37.404;2023-02-03T08:34:47;29.27;;;13.00;;
24619;SDS011;12763;55.802;37.404;2023-02-03T08:37:15;30.13;;;11.45;;
24619;SDS011;12763;55.802;37.404;2023-02-03T08:39:43;34.30;;;12.60;;
24619;SDS011;12763;55.802;37.404;2023-02-03T08:42:10;31.55;;;12.18;;
24619;SDS011;12763;55.802;37.404;2023-02-03T08:44:36;38.72;;;13.30;;
24619;SDS011;12763;55.802;37.404;2023-02-03T08:47:04;29.55;;;12.52;;
24619;SDS011;12763;55.802;37.404;2023-02-03T08:49:31;31.23;;;11.75;;
24619;SDS011;12763;55.802;37.404;2023-02-03T08:52:00;28.65;;;11.70;;
24619;SDS011;12763;55.802;37.404;2023-02-03T08:54:26;29.80;;;11.70;;
24619;SDS011;12763;55.802;37.404;2023-02-03T08:56:53;36.95;;;13.32;;
24619;SDS011;12763;55.802;37.404;2023-02-03T08:59:19;39.05;;;12.73;;
24619;SDS011;12763;55.802;37.404;2023-02-03T09:01:45;26.80;;;10.82;;
24619;SDS011;12763;55.802;37.404;2023-02-03T09:04:13;34.38;;;12.50;;
24619;SDS011;12763;55.802;37.404;2023-02-03T09:06:46;35.95;;;13.02;;
24619;SDS011;12763;55.802;37.404;2023-02-03T09:09:13;37.30;;;13.82;;
24619;SDS011;12763;55.802;37.404;2023-02-03T09:11:40;36.78;;;14.88;;
24619;SDS011;12763;55.802;37.404;2023-02-03T09:14:07;40.35;;;14.95;;
24619;SDS011;12763;55.802;37.404;2023-02-03T09:16:34;36.63;;;13.60;;
24619;SDS011;12763;55.802;37.404;2023-02-03T09:19:01;38.63;;;14.38;;
24619;SDS011;12763;55.802;37.404;2023-02-03T09:21:27;38.13;;;15.00;;
24619;SDS011;12763;55.802;37.404;2023-02-03T09:23:53;39.50;;;14.07;;
24619;SDS011;12763;55.802;37.404;2023-02-03T09:26:20;29.40;;;12.35;;
24619;SDS011;12763;55.802;37.404;2023-02-03T09:28:46;37.20;;;13.43;;
24619;SDS011;12763;55.802;37.404;2023-02-03T09:31:13;37.42;;;12.13;;
24619;SDS011;12763;55.802;37.404;2023-02-03T09:33:42;30.77;;;12.65;;
24619;SDS011;12763;55.802;37.404;2023-02-03T09:36:09;34.90;;;12.88;;
24619;SDS011;12763;55.802;37.404;2023-02-03T09:38:35;39.55;;;13.18;;
24619;SDS011;12763;55.802;37.404;2023-02-03T09:41:16;31.25;;;12.20;;
24619;SDS011;12763;55.802;37.404;2023-02-03T09:44:09;36.65;;;14.10;;
24619;SDS011;12763;55.802;37.404;2023-02-03T09:47:10;35.20;;;14.23;;
24619;SDS011;12763;55.802;37.404;2023-02-03T09:49:37;29.95;;;10.75;;
24619;SDS011;12763;55.802;37.404;2023-02-03T09:52:10;35.45;;;13.90;;
24619;SDS011;12763;55.802;37.404;2023-02-03T09:55:02;38.97;;;14.30;;
24619;SDS011;12763;55.802;37.404;2023-02-03T10:00:43;36.47;;;13.10;;
24619;SDS011;12763;55.802;37.404;2023-02-03T10:03:59;22.20;;;9.40;;
24619;SDS011;12763;55.802;37.404;2023-02-03T10:09:07;30.45;;;10.82;;
24619;SDS011;12763;55.802;37.404;2023-02-03T10:11:42;26.73;;;10.02;;
24619;SDS011;12763;55.802;37.404;2023-02-03T10:14:23;21.33;;;10.25;;
24619;SDS011;12763;55.802;37.404;2023-02-03T10:17:08;23.20;;;9.43;;
24619;SDS011;12763;55.802;37.404;2023-02-03T10:19:48;31.25;;;11.27;;
24619;SDS011;12763;55.802;37.404;2023-02-03T10:22:20;29.33;;;12.18;;
24619;SDS011;12763;55.802;37.404;2023-02-03T10:27:24;26.35;;;11.70;;
24619;SDS011;12763;55.802;37.404;2023-02-03T10:29:56;29.58;;;12.32;;
24619;SDS011;12763;55.802;37.404;2023-02-03T10:32:29;25.38;;;10.50;;
24619;SDS011;12763;55.802;37.404;2023-02-03T10:34:55;26.42;;;11.05;;
24619;SDS011;12763;55.802;37.404;2023-02-03T10:37:25;36.67;;;12.18;;
24619;SDS011;12763;55.802;37.404;2023-02-03T10:39:56;28.95;;;11.93;;
24619;SDS011;12763;55.802;37.404;2023-02-03T10:42:24;33.15;;;10.82;;
24619;SDS011;12763;55.802;37.404;2023-02-03T10:44:57;28.40;;;10.90;;
24619;SDS011;12763;55.802;37.404;2023-02-03T10:47:31;28.83;;;12.43;;
24619;SDS011;12763;55.802;37.404;2023-02-03T10:50:00;28.52;;;10.93;;
24619;SDS011;12763;55.802;37.404;2023-02-03T10:52:35;29.52;;;10.93;;
24619;SDS011;12763;55.802;37.404;2023-02-03T10:55:05;26.33;;;11.40;;
24619;SDS011;12763;55.802;37.404;2023-02-03T10:57:49;24.90;;;10.10;;
24619;SDS011;12763;55.802;37.404;2023-02-03T11:00:23;28.02;;;10.98;;
24619;SDS011;12763;55.802;37.404;2023-02-03T11:02:54;25.05;;;9.73;;
24619;SDS011;12763;55.802;37.404;2023-02-03T11:05:40;30.80;;;11.30;;
24619;SDS011;12763;55.802;37.404;2023-02-03T11:08:15;27.95;;;10.30;;
24619;SDS011;12763;55.802;37.404;2023-02-03T11:10:41;35.47;;;12.68;;
24619;SDS011;12763;55.802;37.404;2023-02-03T11:21:21;26.90;;;11.07;;
24619;SDS011;12763;55.802;37.404;2023-02-03T11:26:25;29.92;;;11.63;;
24619;SDS011;12763;55.802;37.404;2023-02-03T11:28:56;23.55;;;10.68;;
24619;SDS011;12763;55.802;37.404;2023-02-03T11:31:25;25.88;;;10.65;;
24619;SDS011;12763;55.802;37.404;2023-02-03T11:33:55;28.77;;;11.45;;
24619;SDS011;12763;55.802;37.404;2023-02-03T11:36:25;26.45;;;11.25;;
24619;SDS011;12763;55.802;37.404;2023-02-03T11:38:52;31.92;;;11.65;;
24619;SDS011;12763;55.802;37.404;2023-02-03T11:41:35;27.70;;;10.50;;
24619;SDS011;12763;55.802;37.404;2023-02-03T11:44:09;25.02;;;10.25;;
24619;SDS011;12763;55.802;37.404;2023-02-03T11:46:37;25.83;;;11.20;;
24619;SDS011;12763;55.802;37.404;2023-02-03T11:51:52;22.23;;;10.52;;
24619;SDS011;12763;55.802;37.404;2023-02-03T11:57:23;29.30;;;10.80;;
24619;SDS011;12763;55.802;37.404;2023-02-03T12:00:03;30.17;;;11.75;;
24619;SDS011;12763;55.802;37.404;2023-02-03T12:02:58;35.28;;;11.13;;
24619;SDS011;12763;55.802;37.404;2023-02-03T12:08:17;26.00;;;10.18;;
24619;SDS011;12763;55.802;37.404;2023-02-03T12:30:37;26.45;;;11.55;;
24619;SDS011;12763;55.802;37.404;2023-02-03T12:33:18;35.47;;;12.20;;
24619;SDS011;12763;55.802;37.404;2023-02-03T12:43:33;27.00;;;10.10;;
24619;SDS011;12763;55.802;37.404;2023-02-03T12:46:04;21.98;;;10.57;;
24619;SDS011;12763;55.802;37.404;2023-02-03T12:51:55;23.88;;;10.23;;
24619;SDS011;12763;55.802;37.404;2023-02-03T12:54:39;20.38;;;9.25;;
24619;SDS011;12763;55.802;37.404;2023-02-03T13:03:18;22.77;;;9.63;;
24619;SDS011;12763;55.802;37.404;2023-02-03T13:05:40;23.27;;;9.90;;
24619;SDS011;12763;55.802;37.404;2023-02-03T13:11:51;23.73;;;9.23;;
24619;SDS011;12763;55.802;37.404;2023-02-03T13:14:13;24.23;;;9.70;;
24619;SDS011;12763;55.802;37.404;2023-02-03T13:16:47;24.60;;;9.68;;
24619;SDS011;12763;55.802;37.404;2023-02-03T13:19:19;23.60;;;10.32;;
24619;SDS011;12763;55.802;37.404;2023-02-03T13:21:49;21.73;;;9.57;;
24619;SDS011;12763;55.802;37.404;2023-02-03T13:24:15;22.27;;;9.18;;
24619;SDS011;12763;55.802;37.404;2023-02-03T13:26:48;23.35;;;10.45;;
24619;SDS011;12763;55.802;37.404;2023-02-03T13:35:44;21.48;;;9.30;;
24619;SDS011;12763;55.802;37.404;2023-02-03T13:43:13;26.33;;;10.13;;
24619;SDS011;12763;55.802;37.404;2023-02-03T13:45:48;21.27;;;8.75;;
24619;SDS011;12763;55.802;37.404;2023-02-03T13:48:17;22.88;;;9.63;;
24619;SDS011;12763;55.802;37.404;2023-02-03T13:50:48;29.35;;;11.57;;
24619;SDS011;12763;55.802;37.404;2023-02-03T13:53:26;26.75;;;11.90;;
24619;SDS011;12763;55.802;37.404;2023-02-03T13:55:57;25.77;;;8.90;;
24619;SDS011;12763;55.802;37.404;2023-02-03T14:05:50;26.05;;;10.82;;
24619;SDS011;12763;55.802;37.404;2023-02-03T14:16:42;22.23;;;9.82;;
24619;SDS011;12763;55.802;37.404;2023-02-03T14:21:53;31.02;;;11.75;;
24619;SDS011;12763;55.802;37.404;2023-02-03T14:24:19;26.30;;;10.60;;
24619;SDS011;12763;55.802;37.404;2023-02-03T14:26:52;26.00;;;11.60;;
24619;SDS011;12763;55.802;37.404;2023-02-03T14:29:28;25.85;;;11.40;;
24619;SDS011;12763;55.802;37.404;2023-02-03T14:32:03;25.05;;;10.30;;
24619;SDS011;12763;55.802;37.404;2023-02-03T14:51:44;28.35;;;12.30;;
24619;SDS011;12763;55.802;37.404;2023-02-03T14:59:47;31.30;;;12.13;;
24619;SDS011;12763;55.802;37.404;2023-02-03T15:02:28;27.80;;;12.05;;
24619;SDS011;12763;55.802;37.404;2023-02-03T15:07:37;34.47;;;14.82;;
24619;SDS011;12763;55.802;37.404;2023-02-03T15:10:10;32.50;;;14.85;;
24619;SDS011;12763;55.802;37.404;2023-02-03T15:12:42;32.42;;;13.27;;
24619;SDS011;12763;55.802;37.404;2023-02-03T15:15:29;34.78;;;15.00;;
24619;SDS011;12763;55.802;37.404;2023-02-03T15:17:59;39.00;;;13.98;;
24619;SDS011;12763;55.802;37.404;2023-02-03T15:20:44;34.45;;;13.07;;
24619;SDS011;12763;55.802;37.404;2023-02-03T15:23:23;31.98;;;13.70;;
24619;SDS011;12763;55.802;37.404;2023-02-03T15:25:53;26.70;;;11.18;;
24619;SDS011;12763;55.802;37.404;2023-02-03T15:28:23;28.77;;;12.25;;
24619;SDS011;12763;55.802;37.404;2023-02-03T15:30:53;28.27;;;12.70;;
24619;SDS011;12763;55.802;37.404;2023-02-03T15:33:40;28.30;;;12.93;;
24619;SDS011;12763;55.802;37.404;2023-02-03T15:36:11;31.05;;;11.65;;
24619;SDS011;12763;55.802;37.404;2023-02-03T15:38:43;31.55;;;12.95;;
24619;SDS011;12763;55.802;37.404;2023-02-03T15:41:22;31.45;;;12.60;;
24619;SDS011;12763;55.802;37.404;2023-02-03T15:43:57;30.60;;;12.30;;
24619;SDS011;12763;55.802;37.404;2023-02-03T15:46:37;26.67;;;10.75;;
24619;SDS011;12763;55.802;37.404;2023-02-03T15:51:48;35.40;;;12.48;;
24619;SDS011;12763;55.802;37.404;2023-02-03T15:59:31;23.27;;;10.80;;
24619;SDS011;12763;55.802;37.404;2023-02-03T16:02:01;29.55;;;11.25;;
24619;SDS011;12763;55.802;37.404;2023-02-03T16:04:51;31.13;;;12.43;;
24619;SDS011;12763;55.802;37.404;2023-02-03T16:07:19;28.65;;;12.25;;
24619;SDS011;12763;55.802;37.404;2023-02-03T16:09:50;23.38;;;11.38;;
24619;SDS011;12763;55.802;37.404;2023-02-03T16:12:27;28.20;;;10.80;;
24619;SDS011;12763;55.802;37.404;2023-02-03T16:14:58;27.02;;;10.38;;
24619;SDS011;12763;55.802;37.404;2023-02-03T16:17:32;29.13;;;12.13;;
24619;SDS011;12763;55.802;37.404;2023-02-03T16:22:38;26.40;;;10.45;;
24619;SDS011;12763;55.802;37.404;2023-02-03T16:25:18;33.97;;;11.23;;
24619;SDS011;12763;55.802;37.404;2023-02-03T16:27:53;21.90;;;9.07;;
24619;SDS011;12763;55.802;37.404;2023-02-03T16:31:02;22.17;;;10.90;;
24619;SDS011;12763;55.802;37.404;2023-02-03T16:33:54;24.95;;;10.32;;
24619;SDS011;12763;55.802;37.404;2023-02-03T16:36:39;20.37;;;10.90;;
24619;SDS011;12763;55.802;37.404;2023-02-03T16:39:25;22.98;;;9.82;;
24619;SDS011;12763;55.802;37.404;2023-02-03T16:42:17;21.63;;;9.63;;
24619;SDS011;12763;55.802;37.404;2023-02-03T16:45:03;22.75;;;9.40;;
24619;SDS011;12763;55.802;37.404;2023-02-03T16:47:59;20.85;;;8.93;;
24619;SDS011;12763;55.802;37.404;2023-02-03T16:50:43;19.95;;;8.75;;
24619;SDS011;12763;55.802;37.404;2023-02-03T16:53:24;19.38;;;9.00;;
24619;SDS011;12763;55.802;37.404;2023-02-03T16:55:53;18.45;;;8.18;;
24619;SDS011;12763;55.802;37.404;2023-02-03T16:58:20;27.70;;;9.82;;
24619;SDS011;12763;55.802;37.404;2023-02-03T17:00:48;16.17;;;7.20;;
24619;SDS011;12763;55.802;37.404;2023-02-03T17:03:20;19.73;;;7.60;;
24619;SDS011;12763;55.802;37.404;2023-02-03T17:05:48;17.67;;;7.32;;
24619;SDS011;12763;55.802;37.404;2023-02-03T17:08:15;16.00;;;7.68;;
24619;SDS011;12763;55.802;37.404;2023-02-03T17:10:42;15.10;;;7.55;;
24619;SDS011;12763;55.802;37.404;2023-02-03T17:13:09;19.60;;;7.78;;
24619;SDS011;12763;55.802;37.404;2023-02-03T17:15:42;21.52;;;8.63;;
24619;SDS011;12763;55.802;37.404;2023-02-03T17:18:10;18.20;;;8.52;;
24619;SDS011;12763;55.802;37.404;2023-02-03T17:20:37;31.50;;;8.90;;
24619;SDS011;12763;55.802;37.404;2023-02-03T17:23:02;18.60;;;8.10;;
24619;SDS011;12763;55.802;37.404;2023-02-03T17:25:30;14.88;;;7.60;;
24619;SDS011;12763;55.802;37.404;2023-02-03T17:27:58;14.25;;;6.63;;
24619;SDS011;12763;55.802;37.404;2023-02-03T17:30:23;18.77;;;7.43;;